createdAt,value
2022-09-14T00:01:26.862Z,1.90
2022-09-14T00:03:59.170Z,2.50
2022-09-14T00:06:26.292Z,2.75
2022-09-14T00:08:54.687Z,2.33
2022-09-14T00:11:22.814Z,2.45
2022-09-14T00:13:49.720Z,2.35
2022-09-14T00:16:19.248Z,2.33
2022-09-14T00:18:50.910Z,2.20
2022-09-14T00:21:17.734Z,2.45
2022-09-14T00:23:44.519Z,2.30
2022-09-14T00:26:14.091Z,1.85
2022-09-14T00:28:45.199Z,1.98
2022-09-14T00:31:12.551Z,2.25
2022-09-14T00:33:41.534Z,2.17
2022-09-14T00:36:12.393Z,2.55
2022-09-14T00:38:39.583Z,2.50
2022-09-14T00:41:07.762Z,2.10
2022-09-14T00:44:00.663Z,3.00
2022-09-14T00:46:30.267Z,2.33
2022-09-14T00:48:59.154Z,2.35
2022-09-14T00:51:26.049Z,2.50
2022-09-14T00:53:53.228Z,2.20
2022-09-14T00:56:20.057Z,1.88
2022-09-14T00:58:48.411Z,2.65
2022-09-14T01:01:15.544Z,2.08
2022-09-14T01:03:42.405Z,1.80
2022-09-14T01:06:26.270Z,2.58
2022-09-14T01:09:20.973Z,2.33
2022-09-14T01:12:26.161Z,2.25
2022-09-14T01:15:04.949Z,2.17
2022-09-14T01:17:37.813Z,2.10
2022-09-14T01:20:31.384Z,2.15
2022-09-14T01:23:16.708Z,2.33
2022-09-14T01:26:02.054Z,2.03
2022-09-14T01:28:43.652Z,1.98
2022-09-14T01:31:18.341Z,2.58
2022-09-14T01:34:16.628Z,2.10
2022-09-14T01:36:46.236Z,1.90
2022-09-14T01:39:13.015Z,2.28
2022-09-14T01:41:39.860Z,2.30
2022-09-14T01:44:15.888Z,2.08
2022-09-14T01:46:48.823Z,1.95
2022-09-14T01:49:17.476Z,1.92
2022-09-14T01:51:56.431Z,2.45
2022-09-14T01:54:26.927Z,2.10
2022-09-14T01:57:21.792Z,2.30
2022-09-14T01:59:49.648Z,1.87
2022-09-14T02:02:36.001Z,1.98
2022-09-14T02:05:13.795Z,1.92
2022-09-14T02:07:40.739Z,2.05
2022-09-14T02:10:10.108Z,2.20
2022-09-14T02:12:36.906Z,1.85
2022-09-14T02:15:04.704Z,2.53
2022-09-14T02:17:31.773Z,1.90
2022-09-14T02:20:04.283Z,2.15
2022-09-14T02:22:31.491Z,1.75
2022-09-14T02:24:58.559Z,2.03
2022-09-14T02:27:25.673Z,1.90
2022-09-14T02:29:52.522Z,1.67
2022-09-14T02:32:37.951Z,2.28
2022-09-14T02:35:32.742Z,1.70
2022-09-14T02:38:25.049Z,2.42
2022-09-14T02:41:19.391Z,1.88
2022-09-14T02:44:14.310Z,2.00
2022-09-14T02:46:58.710Z,2.10
2022-09-14T02:49:44.603Z,1.60
2022-09-14T02:52:15.624Z,2.03
2022-09-14T02:55:08.903Z,2.17
2022-09-14T02:58:05.191Z,2.28
2022-09-14T03:00:35.201Z,2.20
2022-09-14T03:03:02.770Z,1.95
2022-09-14T03:05:29.699Z,1.58
2022-09-14T03:07:56.846Z,1.70
2022-09-14T03:10:23.626Z,1.65
2022-09-14T03:12:50.548Z,2.05
2022-09-14T03:15:17.643Z,2.10
2022-09-14T03:17:48.534Z,2.10
2022-09-14T03:20:17.075Z,2.22
2022-09-14T03:22:44.160Z,1.95
2022-09-14T03:25:11.131Z,2.13
2022-09-14T03:27:38.000Z,2.10
2022-09-14T03:30:05.539Z,2.25
2022-09-14T03:32:32.751Z,1.90
2022-09-14T03:34:59.742Z,2.05
2022-09-14T03:37:27.114Z,1.83
2022-09-14T03:39:53.980Z,2.20
2022-09-14T03:42:20.863Z,1.58
2022-09-14T03:44:47.914Z,2.13
2022-09-14T03:47:14.726Z,2.05
2022-09-14T03:49:41.654Z,2.00
2022-09-14T03:52:08.685Z,2.05
2022-09-14T03:54:35.486Z,2.00
2022-09-14T03:57:02.354Z,2.17
2022-09-14T03:59:29.546Z,2.15
2022-09-14T04:01:56.405Z,1.90
2022-09-14T04:04:23.282Z,1.63
2022-09-14T04:06:50.297Z,2.00
2022-09-14T04:09:18.958Z,1.58
2022-09-14T04:11:46.474Z,2.05
2022-09-14T04:14:13.601Z,2.45
2022-09-14T04:16:40.719Z,2.40
2022-09-14T04:19:07.881Z,1.75
2022-09-14T04:21:34.959Z,1.80
2022-09-14T04:24:17.952Z,1.88
2022-09-14T04:26:45.597Z,1.85
2022-09-14T04:29:12.905Z,1.98
2022-09-14T04:31:39.782Z,2.05
2022-09-14T04:34:07.019Z,1.92
2022-09-14T04:36:34.218Z,1.77
2022-09-14T04:39:02.153Z,1.80
2022-09-14T04:41:29.762Z,1.95
2022-09-14T04:43:56.635Z,1.90
2022-09-14T04:46:29.546Z,1.85
2022-09-14T04:48:56.767Z,2.10
2022-09-14T04:51:25.352Z,2.00
2022-09-14T04:53:53.186Z,1.90
2022-09-14T04:56:22.455Z,1.95
2022-09-14T04:58:51.788Z,1.75
2022-09-14T05:01:20.523Z,1.88
2022-09-14T05:03:47.647Z,1.85
2022-09-14T05:06:16.390Z,2.35
2022-09-14T05:08:43.425Z,2.00
2022-09-14T05:11:13.854Z,1.90
2022-09-14T05:13:40.757Z,1.65
2022-09-14T05:16:14.785Z,1.80
2022-09-14T05:18:42.287Z,2.00
2022-09-14T05:21:10.661Z,1.95
2022-09-14T05:23:37.832Z,2.33
2022-09-14T05:26:05.172Z,1.70
2022-09-14T05:28:32.343Z,1.88
2022-09-14T05:30:59.323Z,2.08
2022-09-14T05:33:26.467Z,2.13
2022-09-14T05:35:53.303Z,2.00
2022-09-14T05:38:20.097Z,1.80
2022-09-14T05:40:47.144Z,2.13
2022-09-14T05:43:13.985Z,1.90
2022-09-14T05:45:40.804Z,1.85
2022-09-14T05:48:07.913Z,2.25
2022-09-14T05:50:34.776Z,1.65
2022-09-14T05:53:01.572Z,1.92
2022-09-14T05:55:28.666Z,1.85
2022-09-14T05:57:55.518Z,2.25
2022-09-14T06:00:22.810Z,1.83
2022-09-14T06:02:50.498Z,2.20
2022-09-14T06:05:17.636Z,2.33
2022-09-14T06:07:44.646Z,2.22
2022-09-14T06:10:12.085Z,2.22
2022-09-14T06:12:38.965Z,2.20
2022-09-14T06:15:06.330Z,2.67
2022-09-14T06:17:33.364Z,1.75
2022-09-14T06:20:04.442Z,2.42
2022-09-14T06:22:31.986Z,2.47
2022-09-14T06:24:59.082Z,1.95
2022-09-14T06:27:25.899Z,2.22
2022-09-14T06:29:53.894Z,1.90
2022-09-14T06:32:23.170Z,2.20
2022-09-14T06:34:49.968Z,2.35
2022-09-14T06:37:16.814Z,2.20
2022-09-14T06:39:43.945Z,2.30
2022-09-14T06:42:10.888Z,2.10
2022-09-14T06:44:37.691Z,2.38
2022-09-14T06:47:04.872Z,2.30
2022-09-14T06:49:31.759Z,1.88
2022-09-14T06:52:00.560Z,2.10
2022-09-14T06:54:27.739Z,2.20
2022-09-14T06:56:54.736Z,1.80
2022-09-14T06:59:21.600Z,2.38
2022-09-14T07:01:51.552Z,2.13
2022-09-14T07:04:18.502Z,1.90
2022-09-14T07:06:46.971Z,2.20
2022-09-14T07:09:14.847Z,2.47
2022-09-14T07:11:42.163Z,2.50
2022-09-14T07:14:09.198Z,2.65
2022-09-14T07:16:37.042Z,1.98
2022-09-14T07:19:05.782Z,2.33
2022-09-14T07:21:33.225Z,2.33
2022-09-14T07:24:00.441Z,2.65
2022-09-14T07:26:35.405Z,2.28
2022-09-14T07:29:03.932Z,2.03
2022-09-14T07:31:32.753Z,2.33
2022-09-14T07:34:02.694Z,2.05
2022-09-14T07:36:34.584Z,2.35
2022-09-14T07:39:02.764Z,2.20
2022-09-14T07:41:30.202Z,2.35
2022-09-14T07:44:00.363Z,2.38
2022-09-14T07:46:28.494Z,2.50
2022-09-14T07:48:56.709Z,2.45
2022-09-14T07:51:24.289Z,2.20
2022-09-14T07:53:51.496Z,2.28
2022-09-14T07:56:18.424Z,2.45
2022-09-14T07:58:45.658Z,2.60
2022-09-14T08:01:17.936Z,2.25
2022-09-14T08:03:45.444Z,2.58
2022-09-14T08:06:14.889Z,2.35
2022-09-14T08:08:43.617Z,2.55
2022-09-14T08:11:15.715Z,2.40
2022-09-14T08:13:48.705Z,2.50
2022-09-14T08:16:15.565Z,2.92
2022-09-14T08:18:43.176Z,2.45
2022-09-14T08:21:12.052Z,3.20
2022-09-14T08:23:39.126Z,2.58
2022-09-14T08:26:08.264Z,2.70
2022-09-14T08:28:36.441Z,2.92
2022-09-14T08:31:05.017Z,2.97
2022-09-14T08:33:33.574Z,2.80
2022-09-14T08:36:00.900Z,3.03
2022-09-14T08:38:27.777Z,3.17
2022-09-14T08:40:54.756Z,2.70
2022-09-14T08:43:23.248Z,2.47
2022-09-14T08:45:50.797Z,2.63
2022-09-14T08:48:26.957Z,2.78
2022-09-14T08:50:54.190Z,3.15
2022-09-14T08:53:24.653Z,2.70
2022-09-14T08:55:59.337Z,2.58
2022-09-14T08:58:48.303Z,2.83
2022-09-14T09:01:18.243Z,2.80
2022-09-14T09:04:03.837Z,2.55
2022-09-14T09:06:43.570Z,3.08
2022-09-14T09:09:39.922Z,2.60
2022-09-14T09:12:06.814Z,3.20
2022-09-14T09:14:41.394Z,3.35
2022-09-14T09:17:29.393Z,3.40
2022-09-14T09:20:17.566Z,3.67
2022-09-14T09:22:52.529Z,3.03
2022-09-14T09:27:51.373Z,2.97
2022-09-14T09:30:18.306Z,3.03
2022-09-14T09:32:45.366Z,3.45
2022-09-14T09:35:21.449Z,3.15
2022-09-14T09:37:48.538Z,3.47
2022-09-14T09:40:20.185Z,2.85
2022-09-14T09:43:10.149Z,3.53
2022-09-14T09:46:06.992Z,3.38
2022-09-14T09:48:40.781Z,3.20
2022-09-14T09:51:30.973Z,3.33
2022-09-14T09:54:12.900Z,3.75
2022-09-14T09:56:53.356Z,3.53
2022-09-14T09:59:44.196Z,3.03
2022-09-14T10:02:30.818Z,3.75
2022-09-14T10:05:04.813Z,3.33
2022-09-14T10:07:34.250Z,3.30
2022-09-14T10:10:11.881Z,3.63
2022-09-14T10:12:40.203Z,3.58
2022-09-14T10:15:08.743Z,3.65
2022-09-14T10:17:35.559Z,3.58
2022-09-14T10:20:02.625Z,3.53
2022-09-14T10:22:33.577Z,4.10
2022-09-14T10:25:02.351Z,3.53
2022-09-14T10:27:37.726Z,3.70
2022-09-14T10:30:18.236Z,3.53
2022-09-14T10:33:02.332Z,3.67
2022-09-14T10:35:47.614Z,4.10
2022-09-14T10:38:24.877Z,3.90
2022-09-14T10:41:23.511Z,3.97
2022-09-14T10:44:09.154Z,2.92
2022-09-14T10:47:04.852Z,3.55
2022-09-14T10:50:11.455Z,3.97
2022-09-14T10:53:06.157Z,3.60
2022-09-14T10:55:44.792Z,3.58
2022-09-14T10:58:28.942Z,3.78
2022-09-14T11:01:20.820Z,3.78
2022-09-14T11:04:16.953Z,4.20
2022-09-14T11:07:02.125Z,3.85
2022-09-14T11:09:38.191Z,3.33
2022-09-14T11:12:14.249Z,4.15
2022-09-14T11:15:09.129Z,4.10
2022-09-14T11:17:48.485Z,3.80
2022-09-14T11:20:39.377Z,3.25
2022-09-14T11:24:07.776Z,3.95
2022-09-14T11:26:42.299Z,3.90
2022-09-14T11:29:40.926Z,3.83
2022-09-14T11:32:23.140Z,3.70
2022-09-14T11:35:31.557Z,3.35
2022-09-14T11:38:00.932Z,3.28
2022-09-14T11:40:44.426Z,3.47
2022-09-14T11:43:17.950Z,3.47
2022-09-14T11:45:53.878Z,3.58
2022-09-14T11:48:46.456Z,3.30
2022-09-14T11:51:32.596Z,3.10
2022-09-14T11:53:59.419Z,3.47
2022-09-14T11:56:29.925Z,3.40
2022-09-14T11:58:59.705Z,3.20
2022-09-14T12:01:36.558Z,3.47
2022-09-14T12:04:15.277Z,3.70
2022-09-14T12:06:45.304Z,3.55
2022-09-14T12:09:20.985Z,3.75
2022-09-14T12:11:50.912Z,3.47
2022-09-14T12:14:24.277Z,3.60
2022-09-14T12:17:42.617Z,3.80
2022-09-14T12:20:31.418Z,3.67
2022-09-14T12:23:13.651Z,3.63
2022-09-14T12:25:53.326Z,4.20
2022-09-14T12:28:35.350Z,3.50
2022-09-14T12:31:05.330Z,3.55
2022-09-14T12:33:35.038Z,3.25
2022-09-14T12:36:10.973Z,3.92
2022-09-14T12:38:41.253Z,3.85
2022-09-14T12:41:10.870Z,3.30
2022-09-14T12:43:37.926Z,3.55
2022-09-14T12:46:12.032Z,3.47
2022-09-14T12:48:48.162Z,3.78
2022-09-14T12:51:25.605Z,3.90
2022-09-14T12:54:01.479Z,3.97
2022-09-14T12:56:32.927Z,3.67
2022-09-14T12:59:15.190Z,4.32
2022-09-14T13:01:56.599Z,3.53
2022-09-14T13:04:34.093Z,4.40
2022-09-14T13:07:06.342Z,3.72
2022-09-14T13:09:33.237Z,4.38
2022-09-14T13:12:05.929Z,4.20
2022-09-14T13:14:45.089Z,4.72
2022-09-14T13:17:13.577Z,4.45
2022-09-14T13:19:40.721Z,4.85
2022-09-14T13:22:19.115Z,5.20
2022-09-14T13:24:46.934Z,5.10
2022-09-14T13:27:24.321Z,4.63
2022-09-14T13:30:10.325Z,3.95
2022-09-14T13:32:43.198Z,4.40
2022-09-14T13:35:22.474Z,4.47
2022-09-14T13:37:49.310Z,4.40
2022-09-14T13:40:17.054Z,4.47
2022-09-14T13:42:43.994Z,4.20
2022-09-14T13:45:12.887Z,4.53
2022-09-14T13:47:40.006Z,3.58
2022-09-14T13:50:07.150Z,4.30
2022-09-14T13:55:34.039Z,3.92
2022-09-14T13:58:09.663Z,4.28
2022-09-14T14:00:54.766Z,3.88
2022-09-14T14:03:38.029Z,4.18
2022-09-14T14:06:26.335Z,4.30
2022-09-14T14:09:04.413Z,4.10
2022-09-14T14:11:32.874Z,4.18
2022-09-14T14:14:15.756Z,3.85
2022-09-14T14:17:11.534Z,4.28
2022-09-14T14:19:40.487Z,3.50
2022-09-14T14:22:26.319Z,4.38
2022-09-14T14:27:47.145Z,3.53
2022-09-14T14:30:19.208Z,4.22
2022-09-14T14:32:50.968Z,3.50
2022-09-14T14:35:20.199Z,3.75
2022-09-14T14:37:47.941Z,3.33
2022-09-14T14:40:15.544Z,3.20
2022-09-14T14:42:42.476Z,3.65
2022-09-14T14:45:14.445Z,3.63
2022-09-14T14:47:41.409Z,3.53
2022-09-14T14:50:15.772Z,3.38
2022-09-14T14:52:42.912Z,3.22
2022-09-14T14:55:10.596Z,3.65
2022-09-14T14:57:39.001Z,3.65
2022-09-14T15:00:17.285Z,3.35
2022-09-14T15:02:44.163Z,2.80
2022-09-14T15:05:11.316Z,3.25
2022-09-14T15:07:38.420Z,3.17
2022-09-14T15:10:06.011Z,3.30
2022-09-14T15:12:37.240Z,3.60
2022-09-14T15:15:04.736Z,3.10
2022-09-14T15:17:31.548Z,3.22
2022-09-14T15:19:58.565Z,3.17
2022-09-14T15:22:25.363Z,2.90
2022-09-14T15:24:52.148Z,3.40
2022-09-14T15:27:19.256Z,2.85
2022-09-14T15:29:46.082Z,2.85
2022-09-14T15:32:12.958Z,3.20
2022-09-14T15:34:41.036Z,2.72
2022-09-14T15:37:08.912Z,2.72
2022-09-14T15:39:35.779Z,2.70
2022-09-14T15:42:03.493Z,2.70
2022-09-14T15:44:31.006Z,2.40
2022-09-14T15:46:57.879Z,2.63
2022-09-14T15:49:27.170Z,2.45
2022-09-14T15:51:55.192Z,2.60
2022-09-14T15:54:25.499Z,2.30
2022-09-14T15:56:55.144Z,2.55
2022-09-14T15:59:24.510Z,2.50
2022-09-14T16:01:51.515Z,2.70
2022-09-14T16:04:18.799Z,2.15
2022-09-14T16:06:46.160Z,2.35
2022-09-14T16:09:14.191Z,2.30
2022-09-14T16:11:41.490Z,2.08
2022-09-14T16:14:09.682Z,2.30
2022-09-14T16:16:37.280Z,2.25
2022-09-14T16:19:10.837Z,1.70
2022-09-14T16:21:37.771Z,2.20
2022-09-14T16:24:07.951Z,1.80
2022-09-14T16:26:36.285Z,2.58
2022-09-14T16:29:03.492Z,2.35
2022-09-14T16:31:32.350Z,2.25
2022-09-14T16:34:01.813Z,2.08
2022-09-14T16:36:30.114Z,3.15
2022-09-14T16:38:58.288Z,3.17
2022-09-14T16:41:25.863Z,3.28
2022-09-14T16:43:56.705Z,3.83
2022-09-14T16:46:23.704Z,4.30
2022-09-14T16:48:51.012Z,4.68
2022-09-14T16:51:20.109Z,4.45
2022-09-14T16:53:47.440Z,4.90
2022-09-14T16:56:34.016Z,5.20
2022-09-14T16:59:01.064Z,5.40
2022-09-14T17:01:33.930Z,5.90
2022-09-14T17:04:03.822Z,5.78
2022-09-14T17:06:32.248Z,6.80
2022-09-14T17:09:01.005Z,7.13
2022-09-14T17:11:28.937Z,7.35
2022-09-14T17:13:56.264Z,7.15
2022-09-14T17:16:24.260Z,6.95
2022-09-14T17:18:52.549Z,6.88
2022-09-14T17:21:21.766Z,7.22
2022-09-14T17:23:48.924Z,6.32
2022-09-14T17:26:18.670Z,6.47
2022-09-14T17:28:47.365Z,6.43
2022-09-14T17:31:19.995Z,6.22
2022-09-14T17:33:47.457Z,6.18
2022-09-14T17:36:14.625Z,5.65
2022-09-14T17:38:42.240Z,6.57
2022-09-14T17:41:14.260Z,5.25
2022-09-14T17:43:41.297Z,5.18
2022-09-14T17:46:14.185Z,5.78
2022-09-14T17:48:41.898Z,5.90
2022-09-14T17:51:14.518Z,5.28
2022-09-14T17:53:45.413Z,4.88
2022-09-14T17:56:14.043Z,5.10
2022-09-14T17:58:42.094Z,5.15
2022-09-14T18:01:12.590Z,5.07
2022-09-14T18:03:40.877Z,5.10
2022-09-14T18:06:08.886Z,5.07
2022-09-14T18:08:36.046Z,5.03
2022-09-14T18:11:07.694Z,5.10
2022-09-14T18:13:34.600Z,4.72
2022-09-14T18:16:01.574Z,4.72
2022-09-14T18:18:28.713Z,4.40
2022-09-14T18:20:55.492Z,4.60
2022-09-14T18:23:22.311Z,4.38
2022-09-14T18:25:49.376Z,4.60
2022-09-14T18:28:16.157Z,4.25
2022-09-14T18:30:43.849Z,4.45
2022-09-14T18:33:11.040Z,4.10
2022-09-14T18:35:38.241Z,5.13
2022-09-14T18:38:06.705Z,4.07
2022-09-14T18:40:35.073Z,5.22
2022-09-14T18:43:02.608Z,3.95
2022-09-14T18:45:30.268Z,4.32
2022-09-14T18:47:57.435Z,4.18
2022-09-14T18:50:24.309Z,4.38
2022-09-14T18:52:51.477Z,4.50
2022-09-14T18:55:19.039Z,4.70
2022-09-14T18:57:47.637Z,4.25
2022-09-14T19:00:18.446Z,4.80
2022-09-14T19:02:51.652Z,5.28
2022-09-14T19:05:18.731Z,5.05
2022-09-14T19:07:45.613Z,5.25
2022-09-14T19:10:13.462Z,6.07
2022-09-14T19:12:41.003Z,5.95
2022-09-14T19:15:08.294Z,6.35
2022-09-14T19:17:35.346Z,5.82
2022-09-14T19:20:03.429Z,5.88
2022-09-14T19:22:30.282Z,5.43
2022-09-14T19:24:57.383Z,6.10
2022-09-14T19:27:24.279Z,5.95
2022-09-14T19:29:51.861Z,6.20
2022-09-14T19:32:19.486Z,6.35
2022-09-14T19:34:46.329Z,6.80
2022-09-14T19:37:13.190Z,6.47
2022-09-14T19:39:42.254Z,6.45
2022-09-14T19:42:09.174Z,6.53
2022-09-14T19:44:35.974Z,5.82
2022-09-14T19:47:03.356Z,6.35
2022-09-14T19:49:30.974Z,6.43
2022-09-14T19:51:58.045Z,4.97
2022-09-14T19:54:25.074Z,6.82
2022-09-14T19:56:51.984Z,5.93
2022-09-14T19:59:18.845Z,6.32
2022-09-14T20:01:46.189Z,5.97
2022-09-14T20:04:13.380Z,6.63
2022-09-14T20:06:42.709Z,6.90
2022-09-14T20:09:16.251Z,6.53
2022-09-14T20:11:44.567Z,6.10
2022-09-14T20:14:14.925Z,6.43
2022-09-14T20:16:45.582Z,6.15
2022-09-14T20:19:23.027Z,6.90
2022-09-14T20:21:50.872Z,5.80
2022-09-14T20:24:20.074Z,6.28
2022-09-14T20:26:48.127Z,5.95
2022-09-14T20:29:15.863Z,6.18
2022-09-14T20:31:42.992Z,5.45
2022-09-14T20:34:09.951Z,5.50
2022-09-14T20:36:37.099Z,5.28
2022-09-14T20:39:04.417Z,5.55
2022-09-14T20:41:33.243Z,5.13
2022-09-14T20:44:00.411Z,5.13
2022-09-14T20:46:31.768Z,4.93
2022-09-14T20:48:58.965Z,5.13
2022-09-14T20:51:25.910Z,5.00
2022-09-14T20:53:53.258Z,4.47
2022-09-14T20:56:22.057Z,5.45
2022-09-14T20:58:49.017Z,5.13
2022-09-14T21:01:20.543Z,4.90
2022-09-14T21:03:48.205Z,5.10
2022-09-14T21:06:17.721Z,5.05
2022-09-14T21:08:45.035Z,4.72
2022-09-14T21:11:13.425Z,4.45
2022-09-14T21:13:40.469Z,5.18
2022-09-14T21:16:11.547Z,4.75
2022-09-14T21:18:38.629Z,4.30
2022-09-14T21:21:16.505Z,4.88
2022-09-14T21:23:43.825Z,4.28
2022-09-14T21:26:11.638Z,4.75
2022-09-14T21:28:39.253Z,4.60
2022-09-14T21:31:10.506Z,4.50
2022-09-14T21:33:38.708Z,4.53
2022-09-14T21:36:10.712Z,4.10
2022-09-14T21:38:38.057Z,3.83
2022-09-14T21:41:07.169Z,4.25
2022-09-14T21:43:41.002Z,4.22
2022-09-14T21:46:09.061Z,4.15
2022-09-14T21:48:36.488Z,4.10
2022-09-14T21:51:07.480Z,3.75
2022-09-14T21:53:34.692Z,4.00
2022-09-14T21:56:05.358Z,4.07
2022-09-14T21:58:32.464Z,3.45
2022-09-14T22:01:00.607Z,3.67
2022-09-14T22:03:27.496Z,3.40
2022-09-14T22:05:59.328Z,3.20
2022-09-14T22:08:27.104Z,4.00
2022-09-14T22:10:54.851Z,3.88
2022-09-14T22:13:21.916Z,3.10
2022-09-14T22:15:49.081Z,3.25
2022-09-14T22:18:15.970Z,3.35
2022-09-14T22:20:42.791Z,3.58
2022-09-14T22:23:09.945Z,3.50
2022-09-14T22:25:40.787Z,3.60
2022-09-14T22:28:07.648Z,3.40
2022-09-14T22:30:35.234Z,3.13
2022-09-14T22:33:02.104Z,3.38
2022-09-14T22:35:28.952Z,3.63
2022-09-14T22:37:56.055Z,3.08
2022-09-14T22:40:23.056Z,2.72
2022-09-14T22:42:49.936Z,3.35
2022-09-14T22:45:17.824Z,3.53
2022-09-14T22:47:45.872Z,3.75
2022-09-14T22:50:12.739Z,3.25
2022-09-14T22:52:39.763Z,3.30
2022-09-14T22:55:08.420Z,3.60
2022-09-14T22:57:35.244Z,3.40
2022-09-14T23:00:02.735Z,3.33
2022-09-14T23:02:29.735Z,3.60
2022-09-14T23:04:56.682Z,3.78
2022-09-14T23:07:23.795Z,3.33
2022-09-14T23:09:50.560Z,3.50
2022-09-14T23:12:17.563Z,3.45
2022-09-14T23:14:44.670Z,3.35
2022-09-14T23:17:11.628Z,3.75
2022-09-14T23:19:38.484Z,3.17
2022-09-14T23:22:05.603Z,3.85
2022-09-14T23:24:32.460Z,3.97
2022-09-14T23:26:59.298Z,3.25
2022-09-14T23:29:26.370Z,4.25
2022-09-14T23:31:53.183Z,3.88
2022-09-14T23:34:19.964Z,3.53
2022-09-14T23:36:47.049Z,3.92
2022-09-14T23:39:13.935Z,4.10
2022-09-14T23:41:41.204Z,3.95
2022-09-14T23:44:12.766Z,4.57
2022-09-14T23:46:39.778Z,3.85
2022-09-14T23:49:06.602Z,4.20
2022-09-14T23:51:33.633Z,4.50
2022-09-14T23:54:00.442Z,4.40
2022-09-14T23:56:27.299Z,4.03
2022-09-14T23:58:54.454Z,4.20
